sensor_id;sensor_type;location;lat;lon;timestamp;pressure;altitude;pressure_sealevel;temperature
11926;BMP180;6022;48.768;18.608;2023-07-22T00:00:53;97981.81;;;18.32
11926;BMP180;6022;48.768;18.608;2023-07-22T00:03:25;97977.44;;;18.25
11926;BMP180;6022;48.768;18.608;2023-07-22T00:06:09;97995.63;;;18.39
11926;BMP180;6022;48.768;18.608;2023-07-22T00:08:42;97988.28;;;18.44
11926;BMP180;6022;48.768;18.608;2023-07-22T00:11:13;97987.63;;;18.50
11926;BMP180;6022;48.768;18.608;2023-07-22T00:13:41;97985.56;;;18.54
11926;BMP180;6022;48.768;18.608;2023-07-22T00:16:10;97979.94;;;18.58
11926;BMP180;6022;48.768;18.608;2023-07-22T00:18:49;97973.22;;;18.57
11926;BMP180;6022;48.768;18.608;2023-07-22T00:21:17;97968.88;;;18.57
11926;BMP180;6022;48.768;18.608;2023-07-22T00:23:45;97970.94;;;18.54
11926;BMP180;6022;48.768;18.608;2023-07-22T00:26:24;97984.13;;;18.51
11926;BMP180;6022;48.768;18.608;2023-07-22T00:28:55;97996.00;;;18.52
11926;BMP180;6022;48.768;18.608;2023-07-22T00:31:28;97989.56;;;18.48
11926;BMP180;6022;48.768;18.608;2023-07-22T00:33:57;97998.69;;;18.43
11926;BMP180;6022;48.768;18.608;2023-07-22T00:36:49;97998.84;;;18.41
11926;BMP180;6022;48.768;18.608;2023-07-22T00:39:16;97990.47;;;18.39
11926;BMP180;6022;48.768;18.608;2023-07-22T00:41:47;97997.53;;;18.37
11926;BMP180;6022;48.768;18.608;2023-07-22T00:44:20;97993.19;;;18.38
11926;BMP180;6022;48.768;18.608;2023-07-22T00:46:48;97995.94;;;18.36
11926;BMP180;6022;48.768;18.608;2023-07-22T00:49:18;97997.88;;;18.34
11926;BMP180;6022;48.768;18.608;2023-07-22T00:51:49;98011.34;;;18.36
11926;BMP180;6022;48.768;18.608;2023-07-22T00:54:21;98006.53;;;18.33
11926;BMP180;6022;48.768;18.608;2023-07-22T00:56:49;98006.53;;;18.33
11926;BMP180;6022;48.768;18.608;2023-07-22T00:59:16;97991.72;;;18.27
11926;BMP180;6022;48.768;18.608;2023-07-22T01:01:46;97994.31;;;18.27
11926;BMP180;6022;48.768;18.608;2023-07-22T01:04:15;98003.13;;;18.25
11926;BMP180;6022;48.768;18.608;2023-07-22T01:06:51;98004.38;;;18.21
11926;BMP180;6022;48.768;18.608;2023-07-22T01:09:20;98004.53;;;18.19
11926;BMP180;6022;48.768;18.608;2023-07-22T01:11:47;97994.84;;;18.14
11926;BMP180;6022;48.768;18.608;2023-07-22T01:14:17;98002.56;;;18.14
11926;BMP180;6022;48.768;18.608;2023-07-22T01:16:44;98008.38;;;18.16
11926;BMP180;6022;48.768;18.608;2023-07-22T01:19:25;98022.50;;;18.19
11926;BMP180;6022;48.768;18.608;2023-07-22T01:21:57;98027.00;;;18.17
11926;BMP180;6022;48.768;18.608;2023-07-22T01:24:28;98017.16;;;18.13
11926;BMP180;6022;48.768;18.608;2023-07-22T01:26:57;98028.72;;;18.09
11926;BMP180;6022;48.768;18.608;2023-07-22T01:29:25;98027.53;;;18.04
11926;BMP180;6022;48.768;18.608;2023-07-22T01:31:55;98026.53;;;17.97
11926;BMP180;6022;48.768;18.608;2023-07-22T01:34:26;98031.09;;;17.85
11926;BMP180;6022;48.768;18.608;2023-07-22T01:36:55;98035.75;;;17.82
11926;BMP180;6022;48.768;18.608;2023-07-22T01:39:22;98045.72;;;17.93
11926;BMP180;6022;48.768;18.608;2023-07-22T01:41:49;98045.63;;;18.02
11926;BMP180;6022;48.768;18.608;2023-07-22T01:44:16;98054.88;;;18.13
11926;BMP180;6022;48.768;18.608;2023-07-22T01:46:53;98046.72;;;18.17
11926;BMP180;6022;48.768;18.608;2023-07-22T01:49:28;98054.91;;;18.20
11926;BMP180;6022;48.768;18.608;2023-07-22T01:51:56;98046.28;;;18.21
11926;BMP180;6022;48.768;18.608;2023-07-22T01:54:34;98051.06;;;18.17
11926;BMP180;6022;48.768;18.608;2023-07-22T01:57:01;98050.03;;;18.10
11926;BMP180;6022;48.768;18.608;2023-07-22T01:59:31;98032.25;;;18.08
11926;BMP180;6022;48.768;18.608;2023-07-22T02:01:59;98032.72;;;18.12
11926;BMP180;6022;48.768;18.608;2023-07-22T02:04:29;98033.38;;;18.14
11926;BMP180;6022;48.768;18.608;2023-07-22T02:07:01;98040.78;;;18.17
11926;BMP180;6022;48.768;18.608;2023-07-22T02:09:40;98035.28;;;18.12
11926;BMP180;6022;48.768;18.608;2023-07-22T02:12:09;98037.56;;;18.15
11926;BMP180;6022;48.768;18.608;2023-07-22T02:14:41;98031.16;;;18.18
11926;BMP180;6022;48.768;18.608;2023-07-22T02:17:08;98029.91;;;18.22
11926;BMP180;6022;48.768;18.608;2023-07-22T02:19:36;98041.13;;;18.21
11926;BMP180;6022;48.768;18.608;2023-07-22T02:22:05;98055.91;;;18.19
11926;BMP180;6022;48.768;18.608;2023-07-22T02:24:32;98059.41;;;18.18
11926;BMP180;6022;48.768;18.608;2023-07-22T02:27:01;98058.56;;;18.10
11926;BMP180;6022;48.768;18.608;2023-07-22T02:29:30;98064.94;;;18.06
11926;BMP180;6022;48.768;18.608;2023-07-22T02:31:58;98075.03;;;18.08
11926;BMP180;6022;48.768;18.608;2023-07-22T02:34:27;98076.00;;;18.07
11926;BMP180;6022;48.768;18.608;2023-07-22T02:36:55;98080.56;;;18.13
11926;BMP180;6022;48.768;18.608;2023-07-22T02:39:22;98072.38;;;18.17
11926;BMP180;6022;48.768;18.608;2023-07-22T02:41:49;98072.09;;;18.20
11926;BMP180;6022;48.768;18.608;2023-07-22T02:44:18;98071.94;;;18.21
11926;BMP180;6022;48.768;18.608;2023-07-22T02:46:45;98076.94;;;18.23
11926;BMP180;6022;48.768;18.608;2023-07-22T02:49:12;98079.34;;;18.24
11926;BMP180;6022;48.768;18.608;2023-07-22T02:51:40;98079.03;;;18.27
11926;BMP180;6022;48.768;18.608;2023-07-22T02:54:07;98090.09;;;18.28
11926;BMP180;6022;48.768;18.608;2023-07-22T02:56:35;98084.81;;;18.29
11926;BMP180;6022;48.768;18.608;2023-07-22T02:59:03;98075.50;;;18.28
11926;BMP180;6022;48.768;18.608;2023-07-22T03:01:33;98080.16;;;18.25
11926;BMP180;6022;48.768;18.608;2023-07-22T03:04:00;98089.09;;;18.21
11926;BMP180;6022;48.768;18.608;2023-07-22T03:06:29;98092.19;;;18.24
11926;BMP180;6022;48.768;18.608;2023-07-22T03:09:09;98087.03;;;18.24
11926;BMP180;6022;48.768;18.608;2023-07-22T03:11:45;98097.16;;;18.26
11926;BMP180;6022;48.768;18.608;2023-07-22T03:14:12;98099.59;;;18.27
11926;BMP180;6022;48.768;18.608;2023-07-22T03:16:41;98100.53;;;18.26
11926;BMP180;6022;48.768;18.608;2023-07-22T03:19:11;98100.53;;;18.26
11926;BMP180;6022;48.768;18.608;2023-07-22T03:21:38;98106.31;;;18.28
11926;BMP180;6022;48.768;18.608;2023-07-22T03:24:05;98107.78;;;18.31
11926;BMP180;6022;48.768;18.608;2023-07-22T03:26:35;98111.44;;;18.28
11926;BMP180;6022;48.768;18.608;2023-07-22T03:29:04;98113.88;;;18.30
11926;BMP180;6022;48.768;18.608;2023-07-22T03:31:41;98110.75;;;18.18
11926;BMP180;6022;48.768;18.608;2023-07-22T03:34:10;98108.84;;;18.20
11926;BMP180;6022;48.768;18.608;2023-07-22T03:36:40;98110.97;;;18.25
11926;BMP180;6022;48.768;18.608;2023-07-22T03:39:10;98110.50;;;18.29
11926;BMP180;6022;48.768;18.608;2023-07-22T03:41:37;98117.94;;;18.32
11926;BMP180;6022;48.768;18.608;2023-07-22T03:44:04;98110.03;;;18.34
11926;BMP180;6022;48.768;18.608;2023-07-22T03:46:32;98107.97;;;18.37
11926;BMP180;6022;48.768;18.608;2023-07-22T03:49:00;98111.06;;;18.41
11926;BMP180;6022;48.768;18.608;2023-07-22T03:51:28;98109.00;;;18.44
11926;BMP180;6022;48.768;18.608;2023-07-22T03:54:00;98116.38;;;18.47
11926;BMP180;6022;48.768;18.608;2023-07-22T03:56:31;98116.38;;;18.47
11926;BMP180;6022;48.768;18.608;2023-07-22T03:58:59;98118.66;;;18.50
11926;BMP180;6022;48.768;18.608;2023-07-22T04:01:26;98108.88;;;18.54
11926;BMP180;6022;48.768;18.608;2023-07-22T04:03:54;98122.88;;;18.59
11926;BMP180;6022;48.768;18.608;2023-07-22T04:06:21;98117.13;;;18.65
11926;BMP180;6022;48.768;18.608;2023-07-22T04:08:54;98123.28;;;18.72
11926;BMP180;6022;48.768;18.608;2023-07-22T04:11:22;98110.06;;;18.67
11926;BMP180;6022;48.768;18.608;2023-07-22T04:13:50;98111.72;;;18.76
11926;BMP180;6022;48.768;18.608;2023-07-22T04:16:20;98106.31;;;18.87
11926;BMP180;6022;48.768;18.608;2023-07-22T04:18:51;98105.28;;;18.72
11926;BMP180;6022;48.768;18.608;2023-07-22T04:21:23;98107.38;;;18.76
11926;BMP180;6022;48.768;18.608;2023-07-22T04:23:54;98115.13;;;18.92
11926;BMP180;6022;48.768;18.608;2023-07-22T04:26:21;98117.13;;;18.98
11926;BMP180;6022;48.768;18.608;2023-07-22T04:28:54;98133.72;;;19.11
11926;BMP180;6022;48.768;18.608;2023-07-22T04:31:26;98126.69;;;19.29
11926;BMP180;6022;48.768;18.608;2023-07-22T04:33:57;98133.19;;;19.49
11926;BMP180;6022;48.768;18.608;2023-07-22T04:36:31;98136.88;;;19.70
11926;BMP180;6022;48.768;18.608;2023-07-22T04:39:03;98136.25;;;19.76
11926;BMP180;6022;48.768;18.608;2023-07-22T04:41:32;98141.88;;;19.79
11926;BMP180;6022;48.768;18.608;2023-07-22T04:44:02;98142.22;;;19.76
11926;BMP180;6022;48.768;18.608;2023-07-22T04:46:32;98145.44;;;19.78
11926;BMP180;6022;48.768;18.608;2023-07-22T04:49:10;98147.81;;;19.80
11926;BMP180;6022;48.768;18.608;2023-07-22T04:51:37;98159.56;;;19.74
11926;BMP180;6022;48.768;18.608;2023-07-22T04:54:05;98159.09;;;19.79
11926;BMP180;6022;48.768;18.608;2023-07-22T04:56:35;98158.47;;;19.77
11926;BMP180;6022;48.768;18.608;2023-07-22T04:59:02;98162.63;;;19.70
11926;BMP180;6022;48.768;18.608;2023-07-22T05:01:30;98153.63;;;19.58
11926;BMP180;6022;48.768;18.608;2023-07-22T05:03:57;98159.22;;;19.54
11926;BMP180;6022;48.768;18.608;2023-07-22T05:06:24;98159.41;;;19.52
11926;BMP180;6022;48.768;18.608;2023-07-22T05:08:52;98156.97;;;19.59
11926;BMP180;6022;48.768;18.608;2023-07-22T05:11:19;98158.34;;;19.86
11926;BMP180;6022;48.768;18.608;2023-07-22T05:13:47;98145.56;;;20.32
11926;BMP180;6022;48.768;18.608;2023-07-22T05:16:17;98155.03;;;21.47
11926;BMP180;6022;48.768;18.608;2023-07-22T05:18:45;98154.25;;;21.91
11926;BMP180;6022;48.768;18.608;2023-07-22T05:21:12;98148.75;;;22.08
11926;BMP180;6022;48.768;18.608;2023-07-22T05:23:39;98154.97;;;22.73
11926;BMP180;6022;48.768;18.608;2023-07-22T05:26:07;98143.53;;;22.53
11926;BMP180;6022;48.768;18.608;2023-07-22T05:28:34;98151.91;;;22.55
11926;BMP180;6022;48.768;18.608;2023-07-22T05:31:01;98147.47;;;23.06
11926;BMP180;6022;48.768;18.608;2023-07-22T05:33:28;98156.72;;;22.86
11926;BMP180;6022;48.768;18.608;2023-07-22T05:35:56;98153.34;;;22.43
11926;BMP180;6022;48.768;18.608;2023-07-22T05:38:24;98143.03;;;21.98
11926;BMP180;6022;48.768;18.608;2023-07-22T05:40:58;98144.41;;;22.09
11926;BMP180;6022;48.768;18.608;2023-07-22T05:43:27;98145.09;;;23.40
11926;BMP180;6022;48.768;18.608;2023-07-22T05:45:57;98148.84;;;25.08
11926;BMP180;6022;48.768;18.608;2023-07-22T05:48:26;98143.09;;;25.78
11926;BMP180;6022;48.768;18.608;2023-07-22T05:50:54;98146.28;;;26.70
11926;BMP180;6022;48.768;18.608;2023-07-22T05:53:25;98140.81;;;27.53
11926;BMP180;6022;48.768;18.608;2023-07-22T05:55:53;98136.38;;;28.39
11926;BMP180;6022;48.768;18.608;2023-07-22T05:58:30;98136.44;;;29.10
11926;BMP180;6022;48.768;18.608;2023-07-22T06:00:58;98141.69;;;29.28
11926;BMP180;6022;48.768;18.608;2023-07-22T06:03:25;98145.94;;;29.69
11926;BMP180;6022;48.768;18.608;2023-07-22T06:05:57;98148.34;;;30.23
11926;BMP180;6022;48.768;18.608;2023-07-22T06:08:25;98148.97;;;29.84
11926;BMP180;6022;48.768;18.608;2023-07-22T06:10:53;98151.78;;;28.23
11926;BMP180;6022;48.768;18.608;2023-07-22T06:13:20;98163.75;;;26.82
11926;BMP180;6022;48.768;18.608;2023-07-22T06:15:50;98164.50;;;25.74
11926;BMP180;6022;48.768;18.608;2023-07-22T06:18:22;98159.28;;;24.81
11926;BMP180;6022;48.768;18.608;2023-07-22T06:20:51;98166.94;;;24.14
11926;BMP180;6022;48.768;18.608;2023-07-22T06:23:18;98169.50;;;23.52
11926;BMP180;6022;48.768;18.608;2023-07-22T06:25:50;98166.84;;;23.10
11926;BMP180;6022;48.768;18.608;2023-07-22T06:28:20;98175.50;;;22.88
11926;BMP180;6022;48.768;18.608;2023-07-22T06:31:10;98177.75;;;22.55
11926;BMP180;6022;48.768;18.608;2023-07-22T06:33:37;98183.94;;;22.68
11926;BMP180;6022;48.768;18.608;2023-07-22T06:36:05;98183.97;;;22.32
11926;BMP180;6022;48.768;18.608;2023-07-22T06:38:32;98184.84;;;22.24
11926;BMP180;6022;48.768;18.608;2023-07-22T06:41:00;98183.81;;;22.33
11926;BMP180;6022;48.768;18.608;2023-07-22T06:43:29;98171.19;;;22.52
11926;BMP180;6022;48.768;18.608;2023-07-22T06:45:58;98181.47;;;22.89
11926;BMP180;6022;48.768;18.608;2023-07-22T06:48:29;98184.47;;;22.64
11926;BMP180;6022;48.768;18.608;2023-07-22T06:50:57;98186.22;;;23.49
11926;BMP180;6022;48.768;18.608;2023-07-22T06:53:24;98186.69;;;23.73
11926;BMP180;6022;48.768;18.608;2023-07-22T06:55:52;98184.13;;;23.94
11926;BMP180;6022;48.768;18.608;2023-07-22T06:58:20;98190.63;;;23.34
11926;BMP180;6022;48.768;18.608;2023-07-22T07:00:54;98184.56;;;23.13
11926;BMP180;6022;48.768;18.608;2023-07-22T07:03:23;98194.59;;;23.16
11926;BMP180;6022;48.768;18.608;2023-07-22T07:05:57;98208.97;;;23.04
11926;BMP180;6022;48.768;18.608;2023-07-22T07:08:25;98208.78;;;22.91
11926;BMP180;6022;48.768;18.608;2023-07-22T07:10:52;98204.34;;;22.77
11926;BMP180;6022;48.768;18.608;2023-07-22T07:13:24;98210.88;;;22.59
11926;BMP180;6022;48.768;18.608;2023-07-22T07:15:51;98210.47;;;23.13
11926;BMP180;6022;48.768;18.608;2023-07-22T07:18:19;98219.81;;;23.92
11926;BMP180;6022;48.768;18.608;2023-07-22T07:21:08;98213.78;;;26.71
11926;BMP180;6022;48.768;18.608;2023-07-22T07:23:43;98218.94;;;28.10
11926;BMP180;6022;48.768;18.608;2023-07-22T07:26:14;98221.59;;;29.18
11926;BMP180;6022;48.768;18.608;2023-07-22T07:28:42;98222.16;;;30.31
11926;BMP180;6022;48.768;18.608;2023-07-22T07:31:10;98227.31;;;31.17
11926;BMP180;6022;48.768;18.608;2023-07-22T07:33:40;98229.88;;;31.90
11926;BMP180;6022;48.768;18.608;2023-07-22T07:36:11;98227.06;;;31.41
11926;BMP180;6022;48.768;18.608;2023-07-22T07:38:38;98226.50;;;30.60
11926;BMP180;6022;48.768;18.608;2023-07-22T07:41:07;98236.44;;;30.92
11926;BMP180;6022;48.768;18.608;2023-07-22T07:43:40;98223.38;;;31.81
11926;BMP180;6022;48.768;18.608;2023-07-22T07:46:23;98231.09;;;32.43
11926;BMP180;6022;48.768;18.608;2023-07-22T07:48:55;98230.06;;;32.60
11926;BMP180;6022;48.768;18.608;2023-07-22T07:51:25;98231.72;;;33.57
11926;BMP180;6022;48.768;18.608;2023-07-22T07:53:59;98234.94;;;34.38
11926;BMP180;6022;48.768;18.608;2023-07-22T07:56:28;98232.44;;;33.95
11926;BMP180;6022;48.768;18.608;2023-07-22T07:59:01;98238.75;;;33.73
11926;BMP180;6022;48.768;18.608;2023-07-22T08:01:36;98238.00;;;32.33
11926;BMP180;6022;48.768;18.608;2023-07-22T08:04:14;98249.19;;;32.56
11926;BMP180;6022;48.768;18.608;2023-07-22T08:06:48;98235.78;;;32.74
11926;BMP180;6022;48.768;18.608;2023-07-22T08:09:22;98250.91;;;32.99
11926;BMP180;6022;48.768;18.608;2023-07-22T08:11:52;98248.25;;;33.16
11926;BMP180;6022;48.768;18.608;2023-07-22T08:14:22;98248.56;;;33.56
11926;BMP180;6022;48.768;18.608;2023-07-22T08:16:51;98262.19;;;33.96
11926;BMP180;6022;48.768;18.608;2023-07-22T08:19:22;98253.22;;;32.47
11926;BMP180;6022;48.768;18.608;2023-07-22T08:21:50;98265.84;;;31.90
11926;BMP180;6022;48.768;18.608;2023-07-22T08:24:22;98273.88;;;31.61
11926;BMP180;6022;48.768;18.608;2023-07-22T08:26:50;98273.22;;;32.20
11926;BMP180;6022;48.768;18.608;2023-07-22T08:29:22;98272.16;;;32.49
11926;BMP180;6022;48.768;18.608;2023-07-22T08:31:49;98283.03;;;33.01
11926;BMP180;6022;48.768;18.608;2023-07-22T08:34:16;98279.34;;;32.70
11926;BMP180;6022;48.768;18.608;2023-07-22T08:36:46;98283.09;;;32.30
11926;BMP180;6022;48.768;18.608;2023-07-22T08:39:15;98286.53;;;32.02
11926;BMP180;6022;48.768;18.608;2023-07-22T08:41:51;98288.41;;;31.91
11926;BMP180;6022;48.768;18.608;2023-07-22T08:44:25;98291.38;;;30.98
11926;BMP180;6022;48.768;18.608;2023-07-22T08:46:59;98283.59;;;30.00
11926;BMP180;6022;48.768;18.608;2023-07-22T08:49:28;98280.41;;;29.27
11926;BMP180;6022;48.768;18.608;2023-07-22T08:52:00;98279.53;;;30.33
11926;BMP180;6022;48.768;18.608;2023-07-22T08:54:36;98283.63;;;31.15
11926;BMP180;6022;48.768;18.608;2023-07-22T08:57:04;98280.59;;;30.54
11926;BMP180;6022;48.768;18.608;2023-07-22T08:59:33;98284.66;;;31.02
11926;BMP180;6022;48.768;18.608;2023-07-22T09:02:01;98291.59;;;31.08
11926;BMP180;6022;48.768;18.608;2023-07-22T09:04:32;98286.38;;;30.16
11926;BMP180;6022;48.768;18.608;2023-07-22T09:07:03;98290.88;;;29.27
11926;BMP180;6022;48.768;18.608;2023-07-22T09:09:34;98297.13;;;29.43
11926;BMP180;6022;48.768;18.608;2023-07-22T09:12:03;98295.22;;;29.68
11926;BMP180;6022;48.768;18.608;2023-07-22T09:14:32;98299.38;;;30.51
11926;BMP180;6022;48.768;18.608;2023-07-22T09:17:04;98299.91;;;30.94
11926;BMP180;6022;48.768;18.608;2023-07-22T09:19:36;98298.31;;;30.12
11926;BMP180;6022;48.768;18.608;2023-07-22T09:22:03;98300.75;;;29.60
11926;BMP180;6022;48.768;18.608;2023-07-22T09:24:31;98307.41;;;29.80
11926;BMP180;6022;48.768;18.608;2023-07-22T09:26:58;98307.88;;;29.11
11926;BMP180;6022;48.768;18.608;2023-07-22T09:29:39;98307.72;;;29.66
11926;BMP180;6022;48.768;18.608;2023-07-22T09:32:11;98310.38;;;30.31
11926;BMP180;6022;48.768;18.608;2023-07-22T09:34:58;98304.53;;;29.64
11926;BMP180;6022;48.768;18.608;2023-07-22T09:37:36;98309.69;;;29.17
11926;BMP180;6022;48.768;18.608;2023-07-22T09:40:14;98312.31;;;29.35
11926;BMP180;6022;48.768;18.608;2023-07-22T09:42:49;98310.41;;;29.42
11926;BMP180;6022;48.768;18.608;2023-07-22T09:45:23;98315.88;;;29.58
11926;BMP180;6022;48.768;18.608;2023-07-22T09:47:53;98312.22;;;29.95
11926;BMP180;6022;48.768;18.608;2023-07-22T09:50:26;98309.63;;;30.24
11926;BMP180;6022;48.768;18.608;2023-07-22T09:52:58;98317.41;;;30.30
11926;BMP180;6022;48.768;18.608;2023-07-22T09:55:29;98303.09;;;30.15
11926;BMP180;6022;48.768;18.608;2023-07-22T09:58:04;98307.13;;;30.17
11926;BMP180;6022;48.768;18.608;2023-07-22T10:00:43;98312.34;;;30.46
11926;BMP180;6022;48.768;18.608;2023-07-22T10:03:16;98306.75;;;30.43
11926;BMP180;6022;48.768;18.608;2023-07-22T10:05:49;98324.44;;;30.47
11926;BMP180;6022;48.768;18.608;2023-07-22T10:08:23;98310.47;;;30.36
11926;BMP180;6022;48.768;18.608;2023-07-22T10:10:59;98312.69;;;30.21
11926;BMP180;6022;48.768;18.608;2023-07-22T10:13:30;98309.91;;;29.51
11926;BMP180;6022;48.768;18.608;2023-07-22T10:15:57;98312.09;;;29.36
11926;BMP180;6022;48.768;18.608;2023-07-22T10:18:28;98310.56;;;29.65
11926;BMP180;6022;48.768;18.608;2023-07-22T10:20:59;98302.19;;;29.38
11926;BMP180;6022;48.768;18.608;2023-07-22T10:23:31;98311.41;;;28.99
11926;BMP180;6022;48.768;18.608;2023-07-22T10:26:05;98314.47;;;29.38
11926;BMP180;6022;48.768;18.608;2023-07-22T10:28:36;98307.69;;;29.37
11926;BMP180;6022;48.768;18.608;2023-07-22T10:31:04;98313.91;;;29.18
11926;BMP180;6022;48.768;18.608;2023-07-22T10:33:32;98309.88;;;28.91
11926;BMP180;6022;48.768;18.608;2023-07-22T10:36:07;98318.63;;;28.79
11926;BMP180;6022;48.768;18.608;2023-07-22T10:38:35;98310.22;;;28.77
11926;BMP180;6022;48.768;18.608;2023-07-22T10:41:14;98307.75;;;28.52
11926;BMP180;6022;48.768;18.608;2023-07-22T10:43:58;98306.78;;;28.15
11926;BMP180;6022;48.768;18.608;2023-07-22T10:46:36;98306.69;;;27.85
11926;BMP180;6022;48.768;18.608;2023-07-22T10:49:16;98311.16;;;27.78
11926;BMP180;6022;48.768;18.608;2023-07-22T10:51:51;98315.94;;;27.81
11926;BMP180;6022;48.768;18.608;2023-07-22T10:54:34;98326.72;;;27.97
11926;BMP180;6022;48.768;18.608;2023-07-22T10:57:25;98322.44;;;28.77
11926;BMP180;6022;48.768;18.608;2023-07-22T10:59:55;98316.09;;;29.39
11926;BMP180;6022;48.768;18.608;2023-07-22T11:02:26;98315.56;;;29.66
11926;BMP180;6022;48.768;18.608;2023-07-22T11:05:02;98307.91;;;30.18
11926;BMP180;6022;48.768;18.608;2023-07-22T11:07:43;98315.25;;;30.09
11926;BMP180;6022;48.768;18.608;2023-07-22T11:10:18;98316.88;;;30.40
11926;BMP180;6022;48.768;18.608;2023-07-22T11:13:03;98306.34;;;30.57
11926;BMP180;6022;48.768;18.608;2023-07-22T11:15:31;98304.56;;;29.46
11926;BMP180;6022;48.768;18.608;2023-07-22T11:18:08;98313.50;;;29.74
11926;BMP180;6022;48.768;18.608;2023-07-22T11:20:37;98314.69;;;30.07
11926;BMP180;6022;48.768;18.608;2023-07-22T11:23:05;98312.13;;;29.72
11926;BMP180;6022;48.768;18.608;2023-07-22T11:25:36;98310.53;;;30.00
11926;BMP180;6022;48.768;18.608;2023-07-22T11:28:14;98299.47;;;30.16
11926;BMP180;6022;48.768;18.608;2023-07-22T11:30:51;98311.16;;;30.72
11926;BMP180;6022;48.768;18.608;2023-07-22T11:33:20;98298.16;;;30.65
11926;BMP180;6022;48.768;18.608;2023-07-22T11:39:20;98297.19;;;31.34
11926;BMP180;6022;48.768;18.608;2023-07-22T11:41:51;98298.81;;;31.35
11926;BMP180;6022;48.768;18.608;2023-07-22T11:44:22;98295.47;;;31.28
11926;BMP180;6022;48.768;18.608;2023-07-22T11:47:05;98295.34;;;31.23
11926;BMP180;6022;48.768;18.608;2023-07-22T11:49:47;98291.50;;;31.15
11926;BMP180;6022;48.768;18.608;2023-07-22T11:52:17;98292.94;;;31.22
11926;BMP180;6022;48.768;18.608;2023-07-22T11:54:46;98298.66;;;31.30
11926;BMP180;6022;48.768;18.608;2023-07-22T11:57:23;98295.94;;;31.03
11926;BMP180;6022;48.768;18.608;2023-07-22T11:59:56;98290.69;;;31.03
11926;BMP180;6022;48.768;18.608;2023-07-22T12:02:27;98286.47;;;30.79
11926;BMP180;6022;48.768;18.608;2023-07-22T12:05:04;98287.81;;;30.70
11926;BMP180;6022;48.768;18.608;2023-07-22T12:07:38;98284.44;;;30.41
11926;BMP180;6022;48.768;18.608;2023-07-22T12:10:07;98281.69;;;30.36
11926;BMP180;6022;48.768;18.608;2023-07-22T12:12:44;98280.69;;;30.37
11926;BMP180;6022;48.768;18.608;2023-07-22T12:15:28;98270.56;;;30.40
11926;BMP180;6022;48.768;18.608;2023-07-22T12:18:00;98264.28;;;30.01
11926;BMP180;6022;48.768;18.608;2023-07-22T12:20:33;98270.47;;;29.88
11926;BMP180;6022;48.768;18.608;2023-07-22T12:23:02;98275.84;;;29.40
11926;BMP180;6022;48.768;18.608;2023-07-22T12:25:31;98268.22;;;29.74
11926;BMP180;6022;48.768;18.608;2023-07-22T12:28:03;98270.34;;;30.24
11926;BMP180;6022;48.768;18.608;2023-07-22T12:30:30;98274.53;;;30.43
11926;BMP180;6022;48.768;18.608;2023-07-22T12:33:11;98269.88;;;30.45
11926;BMP180;6022;48.768;18.608;2023-07-22T12:35:38;98268.03;;;30.34
11926;BMP180;6022;48.768;18.608;2023-07-22T12:38:08;98256.69;;;30.22
11926;BMP180;6022;48.768;18.608;2023-07-22T12:40:35;98253.84;;;30.64
11926;BMP180;6022;48.768;18.608;2023-07-22T12:43:15;98260.78;;;30.58
11926;BMP180;6022;48.768;18.608;2023-07-22T12:45:48;98262.94;;;30.61
11926;BMP180;6022;48.768;18.608;2023-07-22T12:48:42;98260.56;;;30.60
11926;BMP180;6022;48.768;18.608;2023-07-22T12:51:12;98258.59;;;30.33
11926;BMP180;6022;48.768;18.608;2023-07-22T12:54:03;98264.72;;;30.27
11926;BMP180;6022;48.768;18.608;2023-07-22T12:56:47;98250.34;;;30.00
11926;BMP180;6022;48.768;18.608;2023-07-22T12:59:29;98241.91;;;30.16
11926;BMP180;6022;48.768;18.608;2023-07-22T13:02:15;98245.69;;;30.02
11926;BMP180;6022;48.768;18.608;2023-07-22T13:05:20;98240.34;;;29.97
11926;BMP180;6022;48.768;18.608;2023-07-22T13:08:10;98242.88;;;29.57
11926;BMP180;6022;48.768;18.608;2023-07-22T13:10:40;98240.53;;;29.13
11926;BMP180;6022;48.768;18.608;2023-07-22T13:13:15;98242.94;;;29.32
11926;BMP180;6022;48.768;18.608;2023-07-22T13:15:42;98242.59;;;29.29
11926;BMP180;6022;48.768;18.608;2023-07-22T13:18:13;98243.47;;;29.41
11926;BMP180;6022;48.768;18.608;2023-07-22T13:20:49;98239.25;;;29.40
11926;BMP180;6022;48.768;18.608;2023-07-22T13:23:30;98248.91;;;29.39
11926;BMP180;6022;48.768;18.608;2023-07-22T13:25:59;98238.88;;;29.36
11926;BMP180;6022;48.768;18.608;2023-07-22T13:28:26;98237.88;;;29.37
11926;BMP180;6022;48.768;18.608;2023-07-22T13:30:55;98239.25;;;29.40
11926;BMP180;6022;48.768;18.608;2023-07-22T13:33:35;98241.06;;;29.22
11926;BMP180;6022;48.768;18.608;2023-07-22T13:36:03;98230.56;;;29.28
11926;BMP180;6022;48.768;18.608;2023-07-22T13:38:36;98239.84;;;29.24
11926;BMP180;6022;48.768;18.608;2023-07-22T13:41:05;98236.03;;;29.02
11926;BMP180;6022;48.768;18.608;2023-07-22T13:43:37;98238.25;;;29.23
11926;BMP180;6022;48.768;18.608;2023-07-22T13:46:04;98235.25;;;29.37
11926;BMP180;6022;48.768;18.608;2023-07-22T13:48:38;98236.50;;;29.35
11926;BMP180;6022;48.768;18.608;2023-07-22T13:51:09;98233.56;;;29.07
11926;BMP180;6022;48.768;18.608;2023-07-22T13:53:37;98239.47;;;29.21
11926;BMP180;6022;48.768;18.608;2023-07-22T13:56:05;98242.06;;;29.38
11926;BMP180;6022;48.768;18.608;2023-07-22T13:58:45;98232.78;;;29.07
11926;BMP180;6022;48.768;18.608;2023-07-22T14:01:14;98244.53;;;28.98
11926;BMP180;6022;48.768;18.608;2023-07-22T14:03:41;98236.59;;;29.04
11926;BMP180;6022;48.768;18.608;2023-07-22T14:06:10;98234.47;;;29.19
11926;BMP180;6022;48.768;18.608;2023-07-22T14:08:43;98238.31;;;29.17
11926;BMP180;6022;48.768;18.608;2023-07-22T14:11:13;98230.75;;;29.09
11926;BMP180;6022;48.768;18.608;2023-07-22T14:13:43;98235.38;;;29.07
11926;BMP180;6022;48.768;18.608;2023-07-22T14:16:21;98229.25;;;28.95
11926;BMP180;6022;48.768;18.608;2023-07-22T14:18:50;98223.53;;;29.04
11926;BMP180;6022;48.768;18.608;2023-07-22T14:21:21;98236.22;;;29.01
11926;BMP180;6022;48.768;18.608;2023-07-22T14:23:48;98220.22;;;28.97
11926;BMP180;6022;48.768;18.608;2023-07-22T14:26:16;98226.31;;;29.09
11926;BMP180;6022;48.768;18.608;2023-07-22T14:28:43;98225.44;;;29.15
11926;BMP180;6022;48.768;18.608;2023-07-22T14:31:10;98220.47;;;28.90
11926;BMP180;6022;48.768;18.608;2023-07-22T14:33:40;98219.75;;;28.83
11926;BMP180;6022;48.768;18.608;2023-07-22T14:36:12;98215.50;;;28.64